createdAt,value
2018-11-14T00:01:07.465Z,9.20
2018-11-14T00:03:35.361Z,9.30
2018-11-14T00:06:03.278Z,9.20
2018-11-14T00:08:33.162Z,9.20
2018-11-14T00:11:10.409Z,9.20
2018-11-14T00:13:38.221Z,9.20
2018-11-14T00:16:06.573Z,9.20
2018-11-14T00:18:35.585Z,9.20
2018-11-14T00:21:03.410Z,9.10
2018-11-14T00:23:31.178Z,9.10
2018-11-14T00:25:58.998Z,9.10
2018-11-14T00:28:26.843Z,9.00
2018-11-14T00:30:54.642Z,9.00
2018-11-14T00:33:22.421Z,9.00
2018-11-14T00:35:50.221Z,8.90
2018-11-14T00:38:18.061Z,8.90
2018-11-14T00:40:45.863Z,8.80
2018-11-14T00:43:13.684Z,8.80
2018-11-14T00:45:41.516Z,8.70
2018-11-14T00:48:09.389Z,8.70
2018-11-14T00:50:37.267Z,8.70
2018-11-14T00:53:05.156Z,8.60
2018-11-14T00:55:33.956Z,8.60
2018-11-14T00:58:01.920Z,8.60
2018-11-14T01:00:29.929Z,8.50
2018-11-14T01:02:57.757Z,8.60
2018-11-14T01:05:25.581Z,8.40
2018-11-14T01:07:53.425Z,8.40
2018-11-14T01:10:21.945Z,8.40
2018-11-14T01:12:50.397Z,8.40
2018-11-14T01:15:20.202Z,8.40
2018-11-14T01:17:48.933Z,8.50
2018-11-14T01:20:17.961Z,8.50
2018-11-14T01:22:46.049Z,8.50
2018-11-14T01:25:14.925Z,8.50
2018-11-14T01:27:43.288Z,8.50
2018-11-14T01:30:13.945Z,8.50
2018-11-14T01:32:42.344Z,8.50
2018-11-14T01:35:10.227Z,8.40
2018-11-14T01:37:38.107Z,8.40
2018-11-14T01:40:09.617Z,8.40
2018-11-14T01:42:37.505Z,8.30
2018-11-14T01:45:07.900Z,8.30
2018-11-14T01:47:35.827Z,8.20
2018-11-14T01:50:04.034Z,8.20
2018-11-14T01:52:31.998Z,8.10
2018-11-14T01:54:59.961Z,8.10
2018-11-14T01:57:27.778Z,8.00
2018-11-14T01:59:55.602Z,7.90
2018-11-14T02:02:24.297Z,7.90
2018-11-14T02:04:52.201Z,7.90
2018-11-14T02:07:20.709Z,7.90
2018-11-14T02:09:48.654Z,7.80
2018-11-14T02:12:16.824Z,7.80
2018-11-14T02:14:44.680Z,7.70
2018-11-14T02:17:12.678Z,7.70
2018-11-14T02:19:40.619Z,7.60
2018-11-14T02:22:08.520Z,7.60
2018-11-14T02:24:36.444Z,7.60
2018-11-14T02:27:04.825Z,7.60
2018-11-14T02:29:32.733Z,7.50
2018-11-14T02:32:00.558Z,7.50
2018-11-14T02:34:28.344Z,7.50
2018-11-14T02:36:56.201Z,7.50
2018-11-14T02:39:24.053Z,7.50
2018-11-14T02:41:51.849Z,7.40
2018-11-14T02:44:19.659Z,7.40
2018-11-14T02:46:47.447Z,7.40
2018-11-14T02:49:15.307Z,7.40
2018-11-14T02:51:43.284Z,7.40
2018-11-14T02:54:11.084Z,7.40
2018-11-14T02:56:38.895Z,7.40
2018-11-14T02:59:07.079Z,7.40
2018-11-14T03:01:34.872Z,7.40
2018-11-14T03:04:02.837Z,7.40
2018-11-14T03:06:30.663Z,7.40
2018-11-14T03:08:58.448Z,7.40
2018-11-14T03:11:26.241Z,7.40
2018-11-14T03:13:54.030Z,7.50
2018-11-14T03:16:21.896Z,7.50
2018-11-14T03:18:49.713Z,7.50
2018-11-14T03:21:17.551Z,7.60
2018-11-14T03:23:45.662Z,7.60
2018-11-14T03:26:13.529Z,7.70
2018-11-14T03:28:41.420Z,7.70
2018-11-14T03:31:09.265Z,7.70
2018-11-14T03:33:37.131Z,7.70
2018-11-14T03:36:11.117Z,7.70
2018-11-14T03:38:40.255Z,7.70
2018-11-14T03:41:08.364Z,7.80
2018-11-14T03:43:36.225Z,7.80
2018-11-14T03:46:04.106Z,7.80
2018-11-14T03:48:32.217Z,7.90
2018-11-14T03:51:00.152Z,7.90
2018-11-14T03:53:28.016Z,8.00
2018-11-14T03:55:55.894Z,8.00
2018-11-14T03:58:23.821Z,8.00
2018-11-14T04:00:51.666Z,8.10
2018-11-14T04:03:19.480Z,8.10
2018-11-14T04:05:47.337Z,8.10
2018-11-14T04:08:15.160Z,8.10
2018-11-14T04:10:43.005Z,8.10
2018-11-14T04:13:10.957Z,8.10
2018-11-14T04:15:38.925Z,8.10
2018-11-14T04:18:07.077Z,8.10
2018-11-14T04:20:35.134Z,8.10
2018-11-14T04:23:03.090Z,8.20
2018-11-14T04:25:31.267Z,8.20
2018-11-14T04:27:59.183Z,8.20
2018-11-14T04:30:26.947Z,8.20
2018-11-14T04:32:54.784Z,8.20
2018-11-14T04:35:22.605Z,8.30
2018-11-14T04:37:50.537Z,8.30
2018-11-14T04:40:20.143Z,8.30
2018-11-14T04:42:48.011Z,8.10
2018-11-14T04:45:24.608Z,8.10
2018-11-14T04:47:52.583Z,8.10
2018-11-14T04:50:22.093Z,8.10
2018-11-14T04:52:50.267Z,8.00
2018-11-14T04:55:19.267Z,8.10
2018-11-14T04:57:47.525Z,8.10
2018-11-14T05:00:16.103Z,8.10
2018-11-14T05:02:44.598Z,8.20
2018-11-14T05:05:13.905Z,8.20
2018-11-14T05:07:41.809Z,8.30
2018-11-14T05:10:11.930Z,8.20
2018-11-14T05:12:40.416Z,8.00
2018-11-14T05:15:09.428Z,7.90
2018-11-14T05:17:37.264Z,7.90
2018-11-14T05:20:06.057Z,7.90
2018-11-14T05:22:34.060Z,7.80
2018-11-14T05:25:01.923Z,7.80
2018-11-14T05:27:29.732Z,7.70
2018-11-14T05:29:57.552Z,7.70
2018-11-14T05:32:25.388Z,7.80
2018-11-14T05:34:53.302Z,7.80
2018-11-14T05:37:21.098Z,7.80
2018-11-14T05:39:50.119Z,7.90
2018-11-14T05:42:17.860Z,7.90
2018-11-14T05:44:46.825Z,7.80
2018-11-14T05:47:14.635Z,7.80
2018-11-14T05:49:42.603Z,7.80
2018-11-14T05:52:10.405Z,7.80
2018-11-14T05:54:38.582Z,7.80
2018-11-14T05:57:06.573Z,7.90
2018-11-14T05:59:34.485Z,7.80
2018-11-14T06:02:02.559Z,7.80
2018-11-14T06:04:30.368Z,7.70
2018-11-14T06:06:58.650Z,7.70
2018-11-14T06:09:27.037Z,7.70
2018-11-14T06:11:54.835Z,7.70
2018-11-14T06:14:22.632Z,7.70
2018-11-14T06:16:50.401Z,7.60
2018-11-14T06:19:18.214Z,7.60
2018-11-14T06:21:46.078Z,7.60
2018-11-14T06:24:13.911Z,7.60
2018-11-14T06:26:41.819Z,7.60
2018-11-14T06:29:09.617Z,7.70
2018-11-14T06:31:37.515Z,7.70
2018-11-14T06:34:07.489Z,7.70
2018-11-14T06:36:35.553Z,7.60
2018-11-14T06:39:05.149Z,7.70
2018-11-14T06:41:33.030Z,7.60
2018-11-14T06:44:00.837Z,7.60
2018-11-14T06:46:28.665Z,7.70
2018-11-14T06:48:56.745Z,7.90
2018-11-14T06:51:24.597Z,7.90
2018-11-14T06:53:52.392Z,7.70
2018-11-14T06:56:20.207Z,7.60
2018-11-14T06:58:48.120Z,7.60
2018-11-14T07:01:15.868Z,7.60
2018-11-14T07:03:44.868Z,7.70
2018-11-14T07:06:12.720Z,7.70
2018-11-14T07:08:40.544Z,7.70
2018-11-14T07:11:09.358Z,7.80
2018-11-14T07:13:38.702Z,7.80
2018-11-14T07:16:06.719Z,7.90
2018-11-14T07:18:38.011Z,7.90
2018-11-14T07:21:06.006Z,8.00
2018-11-14T07:23:34.408Z,8.00
2018-11-14T07:26:02.450Z,8.00
2018-11-14T07:28:30.342Z,8.20
2018-11-14T07:30:58.170Z,8.30
2018-11-14T07:33:25.955Z,8.40
2018-11-14T07:35:53.729Z,8.40
2018-11-14T07:38:40.991Z,8.50
2018-11-14T07:41:10.692Z,8.60
2018-11-14T07:43:38.961Z,8.70
2018-11-14T07:46:07.242Z,8.70
2018-11-14T07:48:35.317Z,9.00
2018-11-14T07:51:03.689Z,9.20
2018-11-14T07:53:32.273Z,9.10
2018-11-14T07:56:00.060Z,9.10
2018-11-14T07:58:27.982Z,9.20
2018-11-14T08:00:56.260Z,9.10
2018-11-14T08:03:24.152Z,9.10
2018-11-14T08:05:52.176Z,9.10
2018-11-14T08:08:20.172Z,9.10
2018-11-14T08:10:47.919Z,9.20
2018-11-14T08:13:17.837Z,9.20
2018-11-14T08:15:45.674Z,9.40
2018-11-14T08:18:13.484Z,9.70
2018-11-14T08:20:41.335Z,9.90
2018-11-14T08:23:09.169Z,10.20
2018-11-14T08:25:37.018Z,10.20
2018-11-14T08:28:05.341Z,10.20
2018-11-14T08:30:33.309Z,10.20
2018-11-14T08:33:01.447Z,10.20
2018-11-14T08:35:29.927Z,10.20
2018-11-14T08:37:58.108Z,10.20
2018-11-14T08:40:26.073Z,10.30
2018-11-14T08:42:53.885Z,10.30
2018-11-14T08:45:21.713Z,10.30
2018-11-14T08:47:49.509Z,10.10
2018-11-14T08:50:17.495Z,9.80
2018-11-14T08:52:45.613Z,9.60
2018-11-14T08:55:14.084Z,9.50
2018-11-14T08:57:43.125Z,9.50
2018-11-14T09:00:17.433Z,9.60
2018-11-14T09:02:45.728Z,9.70
2018-11-14T09:05:13.603Z,9.80
2018-11-14T09:07:41.512Z,9.90
2018-11-14T09:10:19.070Z,10.00
2018-11-14T09:12:47.311Z,10.00
2018-11-14T09:15:16.644Z,10.00
2018-11-14T09:17:44.435Z,10.10
2018-11-14T09:20:13.725Z,10.10
2018-11-14T09:22:41.888Z,10.20
2018-11-14T09:25:11.825Z,10.30
2018-11-14T09:27:39.905Z,10.40
2018-11-14T09:30:10.069Z,10.60
2018-11-14T09:32:37.909Z,10.80
2018-11-14T09:35:07.203Z,11.20
2018-11-14T09:37:35.172Z,11.50
2018-11-14T09:40:03.551Z,11.80
2018-11-14T09:42:31.332Z,12.10
2018-11-14T09:44:59.153Z,12.30
2018-11-14T09:47:26.949Z,12.30
2018-11-14T09:49:54.893Z,12.50
2018-11-14T09:52:22.781Z,12.50
2018-11-14T09:54:50.574Z,12.50
2018-11-14T09:57:18.377Z,12.50
2018-11-14T09:59:46.181Z,12.50
2018-11-14T10:02:13.970Z,12.50
2018-11-14T10:04:41.841Z,12.50
2018-11-14T10:07:09.727Z,12.40
2018-11-14T10:09:37.551Z,12.40
2018-11-14T10:12:05.937Z,12.30
2018-11-14T10:14:33.795Z,12.30
2018-11-14T10:17:01.549Z,12.20
2018-11-14T10:19:29.341Z,12.20
2018-11-14T10:21:57.136Z,12.20
2018-11-14T10:24:25.668Z,12.20
2018-11-14T10:26:53.454Z,12.10
2018-11-14T10:29:21.221Z,12.10
2018-11-14T10:31:49.122Z,12.10
2018-11-14T10:34:16.849Z,11.80
2018-11-14T10:36:44.615Z,12.00
2018-11-14T10:39:12.399Z,12.00
2018-11-14T10:41:40.626Z,12.00
2018-11-14T10:44:08.964Z,12.00
2018-11-14T10:46:36.865Z,12.00
2018-11-14T10:49:05.173Z,12.00
2018-11-14T10:51:32.980Z,12.00
2018-11-14T10:54:00.950Z,12.00
2018-11-14T10:56:28.757Z,12.10
2018-11-14T10:58:56.622Z,12.10
2018-11-14T11:01:29.937Z,12.20
2018-11-14T11:04:03.292Z,12.20
2018-11-14T11:06:36.577Z,12.30
2018-11-14T11:09:14.757Z,12.40
2018-11-14T11:11:48.489Z,12.40
2018-11-14T11:14:21.852Z,12.30
2018-11-14T11:16:55.290Z,12.30
2018-11-14T11:19:25.307Z,12.20
2018-11-14T11:21:53.319Z,12.10
2018-11-14T11:24:22.037Z,12.00
2018-11-14T11:26:49.837Z,11.80
2018-11-14T11:29:17.624Z,11.70
2018-11-14T11:31:45.453Z,11.60
2018-11-14T11:34:13.595Z,11.50
2018-11-14T11:36:41.691Z,11.40
2018-11-14T11:39:13.206Z,11.30
2018-11-14T11:41:41.985Z,11.20
2018-11-14T11:44:09.889Z,11.20
2018-11-14T11:46:38.535Z,11.10
2018-11-14T11:49:06.472Z,11.00
2018-11-14T11:51:34.301Z,11.00
2018-11-14T11:54:02.121Z,10.90
2018-11-14T11:56:29.901Z,10.90
2018-11-14T11:58:57.757Z,10.80
2018-11-14T12:01:25.572Z,10.80
2018-11-14T12:03:53.427Z,10.80
2018-11-14T12:06:21.651Z,10.80
2018-11-14T12:08:48.992Z,10.70
2018-11-14T12:11:16.809Z,10.70
2018-11-14T12:13:44.679Z,10.70
2018-11-14T12:16:12.789Z,10.60
2018-11-14T12:18:40.696Z,10.60
2018-11-14T12:21:08.764Z,10.60
2018-11-14T12:23:36.768Z,10.60
2018-11-14T12:26:04.783Z,10.50
2018-11-14T12:28:32.585Z,10.50
2018-11-14T12:31:00.448Z,10.60
2018-11-14T12:33:28.172Z,10.50
2018-11-14T12:35:55.980Z,10.50
2018-11-14T12:38:23.814Z,10.50
2018-11-14T12:40:51.601Z,10.50
2018-11-14T12:43:19.453Z,10.50
2018-11-14T12:45:48.165Z,10.60
2018-11-14T12:48:16.992Z,10.50
2018-11-14T12:50:44.813Z,10.60
2018-11-14T12:53:12.933Z,10.60
2018-11-14T12:55:40.761Z,10.50
2018-11-14T12:58:08.582Z,10.50
2018-11-14T13:00:36.475Z,10.50
2018-11-14T13:03:04.511Z,10.50
2018-11-14T13:05:32.284Z,10.50
2018-11-14T13:08:00.044Z,10.50
2018-11-14T13:10:27.890Z,10.40
2018-11-14T13:12:55.685Z,10.40
2018-11-14T13:15:23.485Z,10.40
2018-11-14T13:17:51.829Z,10.40
2018-11-14T13:20:21.173Z,10.40
2018-11-14T13:22:48.941Z,10.40
2018-11-14T13:25:16.806Z,10.40
2018-11-14T13:27:45.735Z,10.30
2018-11-14T13:30:15.192Z,10.30
2018-11-14T13:32:43.474Z,10.30
2018-11-14T13:35:12.659Z,10.30
2018-11-14T13:37:41.013Z,10.30
2018-11-14T13:40:09.489Z,10.30
2018-11-14T13:42:37.705Z,10.20
2018-11-14T13:45:07.146Z,10.10
2018-11-14T13:47:35.353Z,10.20
2018-11-14T13:50:03.616Z,10.10
2018-11-14T13:52:35.148Z,10.20
2018-11-14T13:55:02.992Z,10.20
2018-11-14T13:57:31.061Z,10.20
2018-11-14T13:59:58.896Z,10.20
2018-11-14T14:02:26.693Z,10.20
2018-11-14T14:04:54.481Z,10.10
2018-11-14T14:07:22.306Z,10.10
2018-11-14T14:09:50.077Z,10.10
2018-11-14T14:12:17.859Z,10.00
2018-11-14T14:14:45.679Z,10.00
2018-11-14T14:17:13.533Z,10.00
2018-11-14T14:19:41.408Z,10.00
2018-11-14T14:22:09.214Z,10.00
2018-11-14T14:24:37.013Z,10.00
2018-11-14T14:27:06.014Z,10.00
2018-11-14T14:29:33.849Z,10.00
2018-11-14T14:32:01.653Z,10.00
2018-11-14T14:34:29.457Z,10.00
2018-11-14T14:36:57.233Z,10.00
2018-11-14T14:39:25.033Z,9.90
2018-11-14T14:41:52.830Z,10.30
2018-11-14T14:44:20.589Z,9.90
2018-11-14T14:46:48.353Z,9.90
2018-11-14T14:49:16.193Z,9.90
2018-11-14T14:51:44.153Z,9.90
2018-11-14T14:54:12.031Z,9.90
2018-11-14T14:56:39.869Z,9.80
2018-11-14T14:59:07.801Z,9.80
2018-11-14T15:01:35.818Z,9.80
2018-11-14T15:04:03.641Z,9.80
2018-11-14T15:06:31.542Z,9.80
2018-11-14T15:08:59.454Z,9.70
2018-11-14T15:11:27.346Z,9.70
2018-11-14T15:13:55.222Z,9.70
2018-11-14T15:16:23.050Z,9.70
2018-11-14T15:18:51.252Z,9.70
2018-11-14T15:21:19.060Z,9.70
2018-11-14T15:23:46.861Z,9.70
2018-11-14T15:26:14.660Z,9.60
2018-11-14T15:28:42.492Z,9.60
2018-11-14T15:31:10.346Z,9.70
2018-11-14T15:33:38.297Z,9.80
2018-11-14T15:36:06.268Z,9.80
2018-11-14T15:38:34.033Z,9.90
2018-11-14T15:41:01.829Z,9.90
2018-11-14T15:43:29.677Z,9.80
2018-11-14T15:45:57.467Z,9.70
2018-11-14T15:48:25.289Z,9.60
2018-11-14T15:50:53.070Z,9.50
2018-11-14T15:53:20.912Z,9.40
2018-11-14T15:55:48.717Z,9.40
2018-11-14T15:58:16.537Z,9.50
2018-11-14T16:00:44.339Z,9.40
2018-11-14T16:03:12.115Z,9.40
2018-11-14T16:05:40.016Z,9.30
2018-11-14T16:08:07.929Z,9.30
2018-11-14T16:10:35.834Z,9.40
2018-11-14T16:13:03.665Z,9.50
2018-11-14T16:15:32.937Z,9.50
2018-11-14T16:18:00.812Z,9.50
2018-11-14T16:20:28.705Z,9.40
2018-11-14T16:22:56.590Z,9.20
2018-11-14T16:25:25.144Z,9.20
2018-11-14T16:27:54.317Z,9.30
2018-11-14T16:30:30.117Z,9.40
2018-11-14T16:32:59.041Z,9.40
2018-11-14T16:35:26.970Z,9.40
2018-11-14T16:37:54.798Z,9.30
2018-11-14T16:40:23.909Z,9.50
2018-11-14T16:42:52.678Z,9.40
2018-11-14T16:45:20.486Z,9.30
2018-11-14T16:47:48.332Z,9.30
2018-11-14T16:50:17.156Z,9.60
2018-11-14T16:52:45.057Z,9.50
2018-11-14T16:55:14.176Z,9.60
2018-11-14T16:57:42.769Z,9.60
2018-11-14T17:00:14.571Z,9.40
2018-11-14T17:02:42.646Z,9.30
2018-11-14T17:05:10.973Z,9.30
2018-11-14T17:07:41.037Z,9.40
2018-11-14T17:10:11.449Z,9.30
2018-11-14T17:12:39.648Z,9.30
2018-11-14T17:15:09.488Z,9.30
2018-11-14T17:17:37.300Z,9.50
2018-11-14T17:20:05.511Z,9.50
2018-11-14T17:22:33.485Z,9.40
2018-11-14T17:25:02.165Z,9.30
2018-11-14T17:27:29.995Z,9.20
2018-11-14T17:29:57.816Z,9.20
2018-11-14T17:32:25.609Z,9.30
2018-11-14T17:34:53.439Z,9.40
2018-11-14T17:37:21.213Z,9.40
2018-11-14T17:39:49.053Z,9.40
2018-11-14T17:42:16.972Z,9.30
2018-11-14T17:44:44.993Z,9.20
2018-11-14T17:47:12.769Z,9.10
2018-11-14T17:49:40.722Z,9.10
2018-11-14T17:52:08.832Z,9.30
2018-11-14T17:54:36.737Z,9.30
2018-11-14T17:57:04.761Z,9.20
2018-11-14T17:59:32.541Z,9.30
2018-11-14T18:02:00.388Z,9.30
2018-11-14T18:04:28.224Z,9.50
2018-11-14T18:06:56.078Z,9.50
2018-11-14T18:09:23.868Z,9.30
2018-11-14T18:11:51.617Z,9.20
2018-11-14T18:14:19.405Z,9.20
2018-11-14T18:16:47.215Z,9.10
2018-11-14T18:19:15.021Z,9.00
2018-11-14T18:21:42.829Z,9.00
2018-11-14T18:24:10.745Z,9.00
2018-11-14T18:26:38.641Z,9.00
2018-11-14T18:29:06.899Z,9.20
2018-11-14T18:31:35.136Z,9.10
2018-11-14T18:34:03.049Z,9.10
2018-11-14T18:36:31.315Z,9.40
2018-11-14T18:39:00.151Z,9.60
2018-11-14T18:41:28.628Z,9.50
2018-11-14T18:43:57.176Z,9.30
2018-11-14T18:46:25.375Z,9.30
2018-11-14T18:48:54.652Z,9.20
2018-11-14T18:51:22.895Z,8.80
2018-11-14T18:53:51.263Z,9.30
2018-11-14T18:56:20.539Z,9.50
2018-11-14T18:58:49.086Z,9.30
2018-11-14T19:01:17.327Z,9.10
2018-11-14T19:03:47.310Z,8.90
2018-11-14T19:06:15.947Z,8.80
2018-11-14T19:08:44.384Z,9.00
2018-11-14T19:11:13.017Z,8.60
2018-11-14T19:13:42.184Z,8.50
2018-11-14T19:16:10.887Z,8.50
2018-11-14T19:18:39.838Z,8.80
2018-11-14T19:21:08.643Z,8.50
2018-11-14T19:23:37.156Z,8.60
2018-11-14T19:26:06.511Z,8.60
2018-11-14T19:28:34.848Z,7.80
2018-11-14T19:31:03.040Z,8.60
2018-11-14T19:33:38.186Z,8.60
2018-11-14T19:36:07.390Z,8.60
2018-11-14T19:38:36.055Z,8.70
2018-11-14T19:41:04.554Z,8.70
2018-11-14T19:43:32.739Z,8.70
2018-11-14T19:46:00.999Z,8.70
2018-11-14T19:48:29.245Z,8.40
2018-11-14T19:50:57.475Z,8.90
2018-11-14T19:53:26.176Z,8.70
2018-11-14T19:55:54.527Z,8.70
2018-11-14T19:58:22.722Z,8.70
2018-11-14T20:00:50.936Z,8.70
2018-11-14T20:03:19.211Z,8.80
2018-11-14T20:05:48.621Z,8.70
2018-11-14T20:08:17.010Z,8.80
2018-11-14T20:10:45.228Z,8.80
2018-11-14T20:13:13.536Z,8.80
2018-11-14T20:15:42.286Z,9.00
2018-11-14T20:18:10.636Z,9.00
2018-11-14T20:20:39.656Z,8.90
2018-11-14T20:23:07.986Z,8.60
2018-11-14T20:25:36.398Z,8.90
2018-11-14T20:28:04.618Z,9.00
2018-11-14T20:30:35.057Z,9.00
2018-11-14T20:33:06.396Z,8.70
2018-11-14T20:35:34.612Z,8.90
2018-11-14T20:38:02.870Z,8.40
2018-11-14T20:40:31.070Z,8.90
2018-11-14T20:42:59.426Z,8.80
2018-11-14T20:45:31.944Z,8.70
2018-11-14T20:48:00.247Z,8.60
2018-11-14T20:50:28.500Z,8.80
2018-11-14T20:52:58.232Z,8.80
2018-11-14T20:55:26.659Z,8.80
2018-11-14T20:57:55.300Z,8.70
2018-11-14T21:00:26.436Z,9.10
2018-11-14T21:02:54.595Z,9.10
2018-11-14T21:05:23.515Z,9.20
2018-11-14T21:07:51.843Z,9.00
2018-11-14T21:10:21.197Z,8.90
2018-11-14T21:12:50.173Z,8.90
2018-11-14T21:15:19.803Z,9.00
2018-11-14T21:17:48.606Z,9.20
2018-11-14T21:20:16.586Z,9.00
2018-11-14T21:22:44.634Z,9.00
2018-11-14T21:25:13.889Z,8.80
2018-11-14T21:27:43.013Z,8.90
2018-11-14T21:30:12.509Z,8.80
2018-11-14T21:32:41.068Z,8.80
2018-11-14T21:35:12.459Z,8.70
2018-11-14T21:37:41.181Z,8.70
2018-11-14T21:40:10.721Z,8.70
2018-11-14T21:42:38.865Z,8.70
2018-11-14T21:45:09.232Z,8.70
2018-11-14T21:47:42.591Z,8.70
2018-11-14T21:50:11.011Z,8.70
2018-11-14T21:52:39.269Z,8.80
2018-11-14T21:55:08.292Z,8.70
2018-11-14T21:57:36.782Z,8.70
2018-11-14T22:00:11.791Z,8.70
2018-11-14T22:02:40.261Z,8.70
2018-11-14T22:05:09.270Z,8.80
2018-11-14T22:07:37.482Z,8.80
2018-11-14T22:10:08.793Z,8.90
2018-11-14T22:12:36.698Z,8.90
2018-11-14T22:15:05.282Z,8.80
2018-11-14T22:17:35.199Z,8.80
2018-11-14T22:20:03.228Z,8.80
2018-11-14T22:22:31.146Z,8.90
2018-11-14T22:24:59.159Z,8.90
2018-11-14T22:27:27.099Z,8.90
2018-11-14T22:29:55.017Z,8.80
2018-11-14T22:32:22.980Z,8.80
2018-11-14T22:34:50.973Z,8.70
2018-11-14T22:37:18.989Z,8.70
2018-11-14T22:39:46.854Z,8.70
2018-11-14T22:42:14.889Z,8.70
2018-11-14T22:44:43.086Z,8.60
2018-11-14T22:47:11.433Z,8.60
2018-11-14T22:49:39.608Z,8.60
2018-11-14T22:52:10.102Z,8.50
2018-11-14T22:54:39.617Z,8.50
2018-11-14T22:57:07.740Z,8.50
2018-11-14T22:59:35.800Z,8.70
2018-11-14T23:02:04.010Z,8.50
2018-11-14T23:04:31.977Z,8.50
2018-11-14T23:06:59.909Z,8.50
2018-11-14T23:09:27.802Z,8.50
2018-11-14T23:11:55.707Z,8.50
2018-11-14T23:14:23.796Z,8.60
2018-11-14T23:16:51.845Z,8.80
2018-11-14T23:19:19.972Z,9.00
2018-11-14T23:21:47.993Z,8.80
2018-11-14T23:24:15.969Z,8.90
2018-11-14T23:26:44.235Z,8.80
2018-11-14T23:29:12.282Z,8.80
2018-11-14T23:31:40.390Z,8.70
2018-11-14T23:34:08.405Z,8.70
2018-11-14T23:36:36.284Z,8.50
2018-11-14T23:39:07.544Z,8.90
2018-11-14T23:41:35.681Z,8.80
2018-11-14T23:44:03.674Z,8.70
2018-11-14T23:46:31.594Z,8.90
2018-11-14T23:48:59.890Z,8.90
2018-11-14T23:51:28.149Z,8.80
2018-11-14T23:53:56.193Z,8.80
2018-11-14T23:56:24.189Z,8.70
2018-11-14T23:58:52.300Z,8.60
